Home > Products > Valid Products > MTR

000
SAUS45 KREV 011557
MTRDRA
METAR KDRA 011552Z 04012KT 10SM FEW250 19/02 A3000 RMK AO2 SLP125
T01940017





000
SAUS45 KREV 011457
MTRDRA
METAR KDRA 011452Z 09011KT 10SM CLR 18/03 A2998 RMK AO2 SLP115
T01780028 53035





000
SAUS45 KREV 011257
MTRDRA
METAR KDRA 011252Z AUTO 07008G17KT 10SM CLR 18/02 A2990 RMK AO2
SLP084 T01780017





000
SAUS45 KREV 011157
MTRDRA
METAR KDRA 011152Z AUTO 04017KT 10SM CLR 18/01 A2986 RMK AO2 SLP070
T01830011 10189 20133 53007





000
SAUS45 KREV 011057
MTRDRA
METAR KDRA 011052Z AUTO 03005KT 10SM CLR 19/01 A2984 RMK AO2 SLP063
T01890006





000
SAUS45 KREV 010956
MTRDRA
METAR KDRA 010952Z AUTO 00000KT 10SM CLR 15/00 A2984 RMK AO2 SLP064
T01500000





000
SAUS45 KREV 010857
MTRDRA
METAR KDRA 010852Z AUTO 00000KT 10SM CLR 14/00 A2984 RMK AO2 SLP068
T01440000 53006





000
SAUS45 KREV 010757
MTRDRA
METAR KDRA 010752Z AUTO 00000KT 10SM CLR 16/00 A2983 RMK AO2 SLP060
T01610000 402720106





000
SAUS45 KREV 010657
MTRDRA
METAR KDRA 010652Z AUTO 11003KT 10SM CLR 16/00 A2983 RMK AO2 SLP062
T01560000





000
SAUS45 KREV 010557
MTRDRA
METAR KDRA 010552Z AUTO 36005KT 10SM CLR 17/01 A2982 RMK AO2 SLP061
T01670006 10267 20167 50002





000
SAUS45 KREV 010457
MTRDRA
METAR KDRA 010452Z AUTO 00000KT 10SM CLR 18/00 A2982 RMK AO2 SLP063
T01780000





000
SAUS45 KREV 010357
MTRDRA
METAR KDRA 010352Z AUTO 00000KT 10SM CLR 19/00 A2983 RMK AO2 SLP065
T01890000





000
SAUS45 KREV 010257
MTRDRA
METAR KDRA 010252Z AUTO 35004KT 10SM CLR 22/M01 A2982 RMK AO2 SLP062
T02171006 55003





000
SAUS45 KREV 010157
MTRDRA
METAR KDRA 010152Z AUTO 29006KT 10SM CLR 23/M01 A2981 RMK AO2 SLP064
T02281011





000
SAUS45 KREV 010057
MTRDRA
METAR KDRA 010052Z AUTO 26007KT 10SM CLR 26/M02 A2982 RMK AO2 SLP063
T02561022





000
SAUS45 KREV 302357
MTRDRA
METAR KDRA 302352Z AUTO 24009KT 10SM CLR 27/M01 A2982 RMK AO2 SLP064
T02671006 10272 20228 56019





000
SAUS45 KREV 302256
MTRDRA
METAR KDRA 302252Z AUTO 22009KT 10SM CLR 27/00 A2984 RMK AO2 SLP068
T02670000





000
SAUS45 KREV 302157
MTRDRA
METAR KDRA 302152Z AUTO 22009KT 10SM CLR 27/00 A2986 RMK AO2 SLP074
T02670000





000
SAUS45 KREV 302057
MTRDRA
METAR KDRA 302052Z AUTO VRB06KT 10SM CLR 26/00 A2989 RMK AO2 SLP083
T02560000 58025





000
SAUS45 KREV 301957
MTRDRA
METAR KDRA 301952Z AUTO 20007KT 10SM CLR 26/01 A2992 RMK AO2 SLP094
T02560006





000
SAUS45 KREV 301857
MTRDRA
METAR KDRA 301852Z AUTO 24004KT 10SM CLR 24/02 A2994 RMK AO2 SLP104
T02440017





000
SAUS45 KREV 301757
MTRDRA
METAR KDRA 301752Z AUTO 22005KT 10SM CLR 23/02 A2997 RMK AO2 SLP112
T02280022 10228 20106 58004





000
SAUS45 KREV 301657
MTRDRA
METAR KDRA 301652Z AUTO 00000KT 10SM CLR 21/03 A2998 RMK AO2 SLP118
T02110028





000
SAUS45 KREV 301556
MTRDRA
METAR KDRA 301552Z AUTO 00000KT 10SM CLR 17/02 A2999 RMK AO2 SLP121
T01720022





000
SAUS45 KREV 301457
MTRDRA
METAR KDRA 301452Z AUTO 09003KT 10SM CLR 14/02 A2998 RMK AO2 SLP120
T01440022 53008





000
SAUS45 KREV 301257
MTRDRA
METAR KDRA 301252Z AUTO 10004KT 10SM CLR 11/01 A2996 RMK AO2 SLP113
T01110011





000
SAUS45 KREV 301157
MTRDRA
METAR KDRA 301152Z AUTO 13003KT 10SM CLR 11/01 A2995 RMK AO2 SLP111
T01060006 10161 20106 56010





000
SAUS45 KREV 301057
MTRDRA
METAR KDRA 301052Z AUTO 15003KT 10SM CLR 11/01 A2997 RMK AO2 SLP115
T01060006





000
SAUS45 KREV 300957
MTRDRA
METAR KDRA 300952Z AUTO 00000KT 10SM CLR 13/01 A2997 RMK AO2 SLP116
T01280011





000
SAUS45 KREV 300857
MTRDRA
METAR KDRA 300852Z AUTO 02004KT 10SM CLR 14/02 A2999 RMK AO2 SLP120
T01390017 54000





000
SAUS45 KREV 300757
MTRDRA
METAR KDRA 300752Z AUTO 00000KT 10SM CLR 14/02 A2998 RMK AO2 SLP119
T01440017 402500094





000
SAUS45 KREV 300657
MTRDRA
METAR KDRA 300652Z AUTO 10003KT 10SM CLR 14/01 A2999 RMK AO2 SLP123
T01440011





000
SAUS45 KREV 300556
MTRDRA
METAR KDRA 300552Z AUTO 02006KT 10SM CLR 16/02 A2999 RMK AO2 SLP121
T01610017 10239 20161 51007





000
SAUS45 KREV 300457
MTRDRA
METAR KDRA 300452Z AUTO 00000KT 10SM CLR 17/01 A2999 RMK AO2 SLP121
T01720011





000
SAUS45 KREV 300357
MTRDRA
METAR KDRA 300352Z AUTO 02005KT 10SM CLR 19/01 A2998 RMK AO2 SLP119
T01890011





000
SAUS45 KREV 300256
MTRDRA
METAR KDRA 300252Z AUTO 26003KT 10SM CLR 20/01 A2996 RMK AO2 SLP117
T02000011 53007





000
SAUS45 KREV 300157
MTRDRA
METAR KDRA 300152Z AUTO 23006KT 10SM CLR 21/01 A2995 RMK AO2 SLP114
T02110011





000
SAUS45 KREV 300057
MTRDRA
METAR KDRA 300052Z AUTO 22009KT 10SM CLR 23/01 A2995 RMK AO2 SLP109
T02280011





000
SAUS45 KREV 292357
MTRDRA
METAR KDRA 292352Z AUTO 20008KT 10SM CLR 24/02 A2994 RMK AO2 SLP106
T02390017 10250 20200 56008





000
SAUS45 KREV 292256
MTRDRA
METAR KDRA 292252Z AUTO 21006G17KT 10SM CLR 24/02 A2995 RMK AO2
SLP108 T02440017





000
SAUS45 KREV 292157
MTRDRA
METAR KDRA 292152Z AUTO 21011G17KT 10SM CLR 24/01 A2996 RMK AO2
SLP107 T02440011





000
SAUS45 KREV 292057
MTRDRA
METAR KDRA 292052Z AUTO 22010KT 10SM CLR 23/02 A2997 RMK AO2 SLP113
T02330022 58009





000
SAUS45 KREV 291957
MTRDRA
METAR KDRA 291952Z AUTO 21008KT 10SM CLR 23/03 A2999 RMK AO2 SLP118
T02330033





000
SAUS45 KREV 291857
MTRDRA
METAR KDRA 291852Z AUTO 23007G14KT 190V260 10SM CLR 22/03 A3000 RMK
AO2 SLP121 T02220033





000
SAUS45 KREV 291757
MTRDRA
METAR KDRA 291752Z AUTO 18003KT 10SM CLR 21/03 A3000 RMK AO2 SLP124
T02060028 10206 20094 50001





000
SAUS45 KREV 291657
MTRDRA
METAR KDRA 291652Z AUTO 29003KT 10SM CLR 19/03 A3000 RMK AO2 SLP127
T01890028





000
SAUS45 KREV 291557
MTRDRA
METAR KDRA 291552Z AUTO 02007KT 10SM CLR 18/04 A3001 RMK AO2 SLP127
T01780039





000
SAUS45 KREV 291457
MTRDRA
METAR KDRA 291452Z AUTO 00000KT 10SM CLR 13/04 A3000 RMK AO2 SLP129
T01280044 51014





000
SAUS45 KREV 291357
MTRDRA
METAR KDRA 291352Z AUTO 00000KT 10SM CLR 09/03 A2999 RMK AO2 SLP127
T00940033





000
SAUS45 KREV 291256
MTRDRA
METAR KDRA 291252Z AUTO 03005KT 10SM CLR 12/04 A2996 RMK AO2 SLP117
T01170044





000
SAUS45 KREV 291157
MTRDRA
METAR KDRA 291152Z AUTO 28004KT 10SM CLR 13/04 A2995 RMK AO2 SLP110
T01280044 10183 20122 55001





000
SAUS45 KREV 291057
MTRDRA
METAR KDRA 291052Z AUTO 21003KT 10SM CLR 13/04 A2995 RMK AO2 SLP109
T01280039





000
SAUS45 KREV 290957
MTRDRA
METAR KDRA 290952Z AUTO 02004KT 10SM FEW110 15/05 A2994 RMK AO2
SLP105 T01500050





000
SAUS45 KREV 290857
MTRDRA
METAR KDRA 290852Z AUTO 20006KT 10SM CLR 15/05 A2995 RMK AO2 SLP110
T01500050 51014





000
SAUS45 KREV 290757
MTRDRA
METAR KDRA 290752Z AUTO 22012G19KT 10SM OVC100 16/05 A2995 RMK AO2
SLP107 T01610050 402280094





000
SAUS45 KREV 290657
MTRDRA
METAR KDRA 290652Z AUTO 22011KT 10SM OVC085 18/04 A2994 RMK AO2
WSHFT 0637 SLP103 T01780039





000
SAUS45 KREV 290557
MTRDRA
METAR KDRA 290552Z AUTO 04006KT 10SM BKN095 18/00 A2991 RMK AO2
SLP094 T01780000 10222 20172 53011





000
SAUS45 KREV 290457
MTRDRA
METAR KDRA 290452Z AUTO 03005KT 10SM FEW095 18/00 A2989 RMK AO2
SLP090 T01780000





000
SAUS45 KREV 290357
MTRDRA
METAR KDRA 290352Z AUTO 00000KT 10SM CLR 19/M01 A2989 RMK AO2 SLP088
T01891006





000
SAUS45 KREV 290257
MTRDRA
METAR KDRA 290252Z AUTO 22007KT 10SM BKN080 19/00 A2987 RMK AO2
SLP086 T01940000 53005





000
SAUS45 KREV 290157
MTRDRA
METAR KDRA 290152Z AUTO 22008KT 10SM CLR 20/00 A2986 RMK AO2 SLP084
T02000000





000
SAUS45 KREV 290057
MTRDRA
METAR KDRA 290052Z AUTO 22010KT 10SM CLR 21/M01 A2985 RMK AO2 SLP079
T02111006





000
SAUS45 KREV 282357
MTRDRA
METAR KDRA 282352Z AUTO 26006KT 10SM FEW085 22/01 A2986 RMK AO2
SLP079 T02170006 10228 20183 56004





000
SAUS45 KREV 282257
MTRDRA
METAR KDRA 282252Z AUTO VRB06KT 10SM CLR 22/02 A2986 RMK AO2 SLP078
T02220017





000
SAUS45 KREV 282157
MTRDRA
METAR KDRA 282152Z AUTO VRB03KT 10SM CLR 21/02 A2987 RMK AO2 SLP082
T02110017





000
SAUS45 KREV 282057
MTRDRA
METAR KDRA 282052Z AUTO VRB05KT 10SM CLR 21/02 A2987 RMK AO2 SLP082
T02110017 58012





000
SAUS45 KREV 281957
MTRDRA
METAR KDRA 281952Z AUTO 24007KT 200V270 10SM CLR 22/01 A2990 RMK AO2
SLP092 T02170011





000
SAUS45 KREV 281857
MTRDRA
METAR KDRA 281852Z AUTO 24007KT 10SM CLR 20/02 A2991 RMK AO2 SLP098
T02000017





000
SAUS45 KREV 281757
MTRDRA
METAR KDRA 281752Z AUTO 22005KT 10SM CLR 18/02 A2991 RMK AO2 SLP097
T01830022 10189 20094 50009





000
SAUS45 KREV 281657
MTRDRA
METAR KDRA 281652Z AUTO 22010KT 10SM FEW100 17/03 A2992 RMK AO2
SLP101 T01720028





    US Dept of Commerce
    National Oceanic and Atmospheric Administration
    National Weather Service
    1325 East West Highway
    Silver Spring, MD 20910
    Page Author: NWS Internet Services Team
Disclaimer
Information Quality
Credits
Glossary
Privacy Policy
Freedom of Information Act (FOIA)
About Us
Career Opportunities